Ahsahka, Idaho
Current Conditions -  °F | °C
As of 8:56 PM on Friday 24 Oct 2014 (Local Time) from KLWS Reporting Station
Broken Clouds Broken Clouds  
Wind Chill: 11°   Ceiling: 9500
Heat Index: 11°   Visibility: 10mi
Dew Point:   Wind: 7mph
Humidity: 89%   Direction: 120°ESE
Pressure: 29.95"   Gusts: NA
Location:  46.51°N, 116.35°W
Report Text: KLWS 250356Z AUTO 12006KT 10SM BKN095 11/09 A2995 RMK AO2 SLP144 T01110094
Loading
Personal Weather Stations






























Interactive Weather Map
Tropical Storm Tracking
New forecast layout! Learn more

10-Day Weather Forecast

Advertisements
Track Severe Weather on mobile